createdAt,value
2022-11-06T00:00:34.596Z,31.05
2022-11-06T00:03:03.457Z,34.95
2022-11-06T00:05:49.679Z,29.63
2022-11-06T00:08:26.744Z,33.47
2022-11-06T00:10:55.103Z,30.52
2022-11-06T00:13:25.095Z,30.98
2022-11-06T00:15:53.523Z,27.55
2022-11-06T00:18:21.683Z,27.10
2022-11-06T00:20:49.803Z,29.05
2022-11-06T00:23:17.996Z,31.17
2022-11-06T00:25:46.122Z,38.03
2022-11-06T00:28:14.677Z,35.08
2022-11-06T00:30:44.410Z,32.15
2022-11-06T00:33:12.565Z,29.73
2022-11-06T00:35:41.314Z,30.80
2022-11-06T00:38:09.537Z,34.45
2022-11-06T00:40:37.855Z,34.05
2022-11-06T00:43:05.992Z,31.55
2022-11-06T00:45:34.109Z,38.35
2022-11-06T00:48:03.586Z,36.60
2022-11-06T00:50:31.682Z,41.65
2022-11-06T00:52:59.781Z,33.20
2022-11-06T00:55:28.049Z,34.42
2022-11-06T00:57:56.143Z,36.95
2022-11-06T01:00:24.236Z,37.90
2022-11-06T01:02:52.659Z,33.25
2022-11-06T01:05:22.206Z,29.90
2022-11-06T01:07:50.505Z,32.78
2022-11-06T01:10:18.863Z,28.55
2022-11-06T01:12:46.947Z,32.88
2022-11-06T01:15:15.266Z,25.02
2022-11-06T01:17:43.331Z,30.83
2022-11-06T01:20:12.319Z,26.00
2022-11-06T01:22:41.760Z,28.45
2022-11-06T01:25:10.360Z,29.65
2022-11-06T01:27:38.434Z,25.02
2022-11-06T01:30:07.786Z,22.35
2022-11-06T01:32:35.893Z,22.00
2022-11-06T01:35:04.045Z,24.73
2022-11-06T01:37:32.194Z,22.15
2022-11-06T01:40:01.691Z,22.98
2022-11-06T01:42:29.880Z,18.85
2022-11-06T01:45:16.611Z,21.92
2022-11-06T01:47:45.302Z,20.65
2022-11-06T01:50:14.879Z,22.30
2022-11-06T01:52:44.601Z,20.80
2022-11-06T01:55:17.812Z,17.45
2022-11-06T01:57:47.181Z,19.85
2022-11-06T02:00:15.624Z,21.50
2022-11-06T02:02:44.004Z,18.10
2022-11-06T02:05:12.673Z,16.25
2022-11-06T02:07:41.935Z,15.20
2022-11-06T02:10:10.967Z,18.85
2022-11-06T02:12:53.007Z,16.85
2022-11-06T02:15:31.131Z,18.35
2022-11-06T02:18:14.327Z,14.90
2022-11-06T02:20:51.139Z,17.50
2022-11-06T02:23:50.406Z,18.30
2022-11-06T02:26:35.412Z,15.10
2022-11-06T02:29:09.507Z,19.63
2022-11-06T02:31:42.654Z,14.50
2022-11-06T02:34:14.723Z,17.20
2022-11-06T02:36:49.555Z,18.35
2022-11-06T02:39:21.139Z,17.17
2022-11-06T02:41:52.463Z,12.20
2022-11-06T02:44:25.606Z,13.02
2022-11-06T02:46:56.694Z,18.13
2022-11-06T02:49:28.011Z,13.75
2022-11-06T02:51:59.663Z,12.38
2022-11-06T02:54:32.575Z,11.35
2022-11-06T02:57:06.066Z,18.90
2022-11-06T02:59:41.256Z,11.73
2022-11-06T03:02:14.715Z,12.20
2022-11-06T03:04:47.651Z,12.43
2022-11-06T03:07:22.669Z,14.02
2022-11-06T03:09:51.358Z,11.30
2022-11-06T03:12:25.215Z,11.23
2022-11-06T03:15:00.933Z,13.82
2022-11-06T03:17:41.293Z,15.45
2022-11-06T03:20:19.120Z,12.70
2022-11-06T03:22:53.549Z,11.02
2022-11-06T03:25:25.191Z,12.43
2022-11-06T03:28:03.047Z,11.80
2022-11-06T03:30:36.094Z,12.00
2022-11-06T03:33:11.662Z,11.02
2022-11-06T03:35:45.696Z,11.50
2022-11-06T03:38:19.357Z,13.35
2022-11-06T03:40:52.574Z,14.45
2022-11-06T03:43:25.122Z,10.52
2022-11-06T03:45:57.317Z,12.32
2022-11-06T03:48:33.259Z,10.45
2022-11-06T03:51:06.635Z,8.50
2022-11-06T03:53:42.468Z,9.98
2022-11-06T03:56:14.782Z,10.07
2022-11-06T03:58:46.940Z,12.57
2022-11-06T04:01:22.198Z,12.35
2022-11-06T04:03:55.590Z,10.60
2022-11-06T04:06:29.359Z,12.00
2022-11-06T04:09:19.740Z,11.35
2022-11-06T04:12:06.829Z,9.95
2022-11-06T04:14:37.855Z,11.95
2022-11-06T04:17:10.884Z,11.30
2022-11-06T04:19:40.809Z,10.30
2022-11-06T04:22:22.871Z,12.77
2022-11-06T04:25:21.818Z,13.38
2022-11-06T04:28:02.522Z,11.77
2022-11-06T04:30:35.088Z,10.20
2022-11-06T04:33:12.288Z,11.18
2022-11-06T04:35:49.682Z,16.38
2022-11-06T04:38:29.310Z,15.38
2022-11-06T04:41:05.235Z,14.68
2022-11-06T04:43:42.214Z,15.23
2022-11-06T04:46:15.168Z,20.60
2022-11-06T04:48:46.717Z,12.30
2022-11-06T04:51:16.753Z,14.48
2022-11-06T04:53:45.328Z,15.48
2022-11-06T04:56:20.119Z,13.15
2022-11-06T04:58:49.366Z,12.95
2022-11-06T05:01:17.576Z,14.07
2022-11-06T05:03:47.061Z,14.70
2022-11-06T05:06:15.298Z,14.30
2022-11-06T05:08:43.418Z,15.10
2022-11-06T05:11:11.696Z,14.75
2022-11-06T05:13:39.878Z,12.90
2022-11-06T05:16:08.744Z,15.90
2022-11-06T05:18:37.310Z,18.08
2022-11-06T05:21:24.512Z,14.88
2022-11-06T05:23:52.687Z,13.85
2022-11-06T05:26:20.852Z,14.60
2022-11-06T05:28:49.392Z,14.38
2022-11-06T05:31:17.721Z,15.80
2022-11-06T05:33:45.829Z,14.25
2022-11-06T05:36:15.410Z,15.05
2022-11-06T05:38:43.608Z,15.18
2022-11-06T05:41:11.788Z,15.55
2022-11-06T05:43:40.023Z,14.98
2022-11-06T05:46:23.805Z,15.82
2022-11-06T05:48:56.211Z,20.50
2022-11-06T05:51:25.698Z,15.20
2022-11-06T05:53:53.900Z,14.80
2022-11-06T05:56:22.023Z,17.20
2022-11-06T05:58:50.173Z,16.02
2022-11-06T06:01:18.452Z,15.57
2022-11-06T06:03:46.654Z,14.52
2022-11-06T06:06:14.790Z,17.98
2022-11-06T06:08:44.303Z,18.13
2022-11-06T06:11:12.443Z,16.00
2022-11-06T06:13:40.539Z,22.50
2022-11-06T06:16:08.895Z,16.70
2022-11-06T06:18:37.044Z,19.38
2022-11-06T06:21:05.403Z,16.48
2022-11-06T06:23:33.524Z,19.77
2022-11-06T06:26:03.026Z,16.73
2022-11-06T06:28:31.868Z,19.85
2022-11-06T06:31:01.797Z,18.70
2022-11-06T06:33:30.168Z,20.23
2022-11-06T06:35:58.347Z,17.88
2022-11-06T06:38:27.007Z,20.33
2022-11-06T06:40:55.261Z,18.98
2022-11-06T06:43:24.770Z,17.98
2022-11-06T06:45:53.435Z,21.50
2022-11-06T06:48:21.536Z,17.05
2022-11-06T06:50:49.628Z,22.85
2022-11-06T06:53:17.842Z,16.83
2022-11-06T06:55:45.981Z,17.20
2022-11-06T06:58:17.916Z,16.63
2022-11-06T07:00:48.240Z,20.25
2022-11-06T07:03:16.694Z,19.27
2022-11-06T07:05:45.044Z,16.70
2022-11-06T07:08:13.453Z,19.73
2022-11-06T07:10:41.732Z,19.48
2022-11-06T07:13:10.310Z,18.90
2022-11-06T07:15:38.645Z,16.08
2022-11-06T07:18:08.665Z,18.15
2022-11-06T07:20:36.919Z,19.83
2022-11-06T07:23:07.091Z,16.52
2022-11-06T07:25:35.357Z,15.48
2022-11-06T07:28:04.207Z,17.50
2022-11-06T07:30:33.583Z,17.75
2022-11-06T07:33:02.139Z,18.07
2022-11-06T07:35:32.042Z,18.70
2022-11-06T07:38:00.143Z,25.87
2022-11-06T07:40:28.541Z,20.65
2022-11-06T07:42:56.694Z,21.37
2022-11-06T07:45:25.643Z,21.02
2022-11-06T07:47:59.241Z,21.02
2022-11-06T07:50:28.291Z,22.65
2022-11-06T07:52:58.209Z,27.67
2022-11-06T07:55:26.288Z,21.97
2022-11-06T07:57:54.407Z,20.20
2022-11-06T08:00:22.696Z,25.07
2022-11-06T08:02:52.894Z,20.90
2022-11-06T08:05:21.255Z,18.17
2022-11-06T08:07:49.367Z,25.03
2022-11-06T08:10:19.075Z,23.10
2022-11-06T08:12:47.182Z,18.43
2022-11-06T08:15:15.423Z,20.43
2022-11-06T08:17:43.540Z,22.90
2022-11-06T08:20:12.202Z,19.80
2022-11-06T08:22:40.330Z,19.53
2022-11-06T08:25:09.891Z,17.37
2022-11-06T08:27:39.382Z,22.33
2022-11-06T08:30:08.863Z,21.80
2022-11-06T08:32:36.996Z,16.93
2022-11-06T08:35:05.750Z,20.00
2022-11-06T08:37:33.800Z,18.77
2022-11-06T08:40:01.930Z,23.23
2022-11-06T08:42:30.384Z,21.07
2022-11-06T08:44:59.986Z,22.73
2022-11-06T08:47:28.113Z,22.80
2022-11-06T08:49:56.705Z,21.98
2022-11-06T08:52:26.748Z,26.10
2022-11-06T08:54:56.899Z,25.23
2022-11-06T08:57:25.362Z,22.90
2022-11-06T08:59:53.477Z,23.85
2022-11-06T09:02:23.001Z,24.67
2022-11-06T09:04:51.129Z,23.10
2022-11-06T09:07:19.238Z,22.50
2022-11-06T09:09:47.358Z,23.08
2022-11-06T09:12:15.467Z,23.60
2022-11-06T09:14:43.698Z,26.23
2022-11-06T09:17:11.829Z,24.17
2022-11-06T09:19:41.480Z,26.08
2022-11-06T09:22:09.979Z,22.42
2022-11-06T09:25:02.146Z,26.48
2022-11-06T09:27:26.654Z,22.42
2022-11-06T09:29:54.841Z,22.25
2022-11-06T09:32:24.033Z,20.38
2022-11-06T09:34:53.550Z,16.45
2022-11-06T09:37:21.675Z,24.00
2022-11-06T09:39:49.807Z,19.55
2022-11-06T09:42:26.748Z,19.02
2022-11-06T09:45:08.754Z,20.42
2022-11-06T09:47:40.606Z,21.02
2022-11-06T09:50:16.026Z,21.60
2022-11-06T09:52:47.804Z,18.88
2022-11-06T09:55:20.388Z,19.58
2022-11-06T09:57:53.224Z,19.77
2022-11-06T10:00:21.767Z,20.40
2022-11-06T10:02:51.799Z,20.38
2022-11-06T10:05:27.025Z,21.85
2022-11-06T10:07:58.083Z,19.52
2022-11-06T10:10:33.790Z,18.48
2022-11-06T10:13:22.261Z,18.50
2022-11-06T10:16:00.087Z,20.25
2022-11-06T10:18:39.487Z,19.02
2022-11-06T10:21:12.673Z,19.65
2022-11-06T10:23:49.306Z,22.02
2022-11-06T10:26:19.525Z,19.20
2022-11-06T10:29:10.722Z,17.60
2022-11-06T10:31:48.461Z,16.55
2022-11-06T10:34:22.898Z,17.48
2022-11-06T10:36:56.514Z,16.08
2022-11-06T10:39:29.824Z,16.98
2022-11-06T10:42:03.522Z,19.08
2022-11-06T10:44:37.959Z,17.87
2022-11-06T10:47:16.876Z,19.65
2022-11-06T10:49:48.818Z,20.02
2022-11-06T10:52:40.062Z,21.67
2022-11-06T10:55:35.966Z,18.02
2022-11-06T10:58:06.551Z,17.27
2022-11-06T11:00:35.875Z,17.25
2022-11-06T11:03:06.952Z,16.20
2022-11-06T11:05:39.736Z,14.98
2022-11-06T11:08:42.100Z,15.98
2022-11-06T11:11:26.949Z,12.75
2022-11-06T11:14:22.554Z,11.95
2022-11-06T11:16:50.891Z,13.55
2022-11-06T11:19:28.602Z,11.90
2022-11-06T11:21:58.874Z,12.88
2022-11-06T11:24:29.290Z,14.02
2022-11-06T11:27:02.141Z,15.30
2022-11-06T11:29:33.057Z,16.73
2022-11-06T11:32:03.818Z,15.07
2022-11-06T11:34:34.284Z,16.77
2022-11-06T11:37:04.467Z,19.63
2022-11-06T11:39:35.873Z,17.85
2022-11-06T11:42:25.895Z,20.45
2022-11-06T11:45:17.395Z,18.10
2022-11-06T11:47:47.941Z,18.77
2022-11-06T11:50:26.738Z,17.83
2022-11-06T11:52:59.109Z,16.85
2022-11-06T11:55:31.018Z,16.50
2022-11-06T11:58:01.602Z,16.15
2022-11-06T12:00:30.926Z,17.05
2022-11-06T12:03:02.674Z,14.38
2022-11-06T12:05:35.668Z,14.20
2022-11-06T12:08:04.755Z,16.98
2022-11-06T12:10:36.903Z,12.25
2022-11-06T12:13:08.031Z,10.13
2022-11-06T12:15:45.520Z,12.30
2022-11-06T12:18:16.819Z,12.52
2022-11-06T12:20:52.882Z,11.50
2022-11-06T12:23:26.031Z,11.75
2022-11-06T12:26:02.809Z,11.88
2022-11-06T12:28:34.154Z,12.10
2022-11-06T12:31:08.382Z,11.68
2022-11-06T12:34:04.937Z,10.57
2022-11-06T12:36:37.013Z,8.98
2022-11-06T12:39:12.050Z,11.10
2022-11-06T12:41:46.239Z,10.63
2022-11-06T12:44:17.309Z,12.83
2022-11-06T12:46:52.209Z,11.63
2022-11-06T12:49:40.660Z,8.77
2022-11-06T12:52:25.071Z,10.00
2022-11-06T12:55:09.046Z,9.73
2022-11-06T12:57:52.102Z,10.23
2022-11-06T13:00:21.831Z,13.00
2022-11-06T13:03:23.338Z,11.93
2022-11-06T13:05:59.951Z,9.87
2022-11-06T13:08:35.733Z,12.83
2022-11-06T13:11:19.290Z,10.10
2022-11-06T13:13:59.124Z,10.60
2022-11-06T13:16:40.000Z,13.10
2022-11-06T13:19:16.562Z,9.77
2022-11-06T13:22:17.879Z,10.63
2022-11-06T13:24:52.150Z,11.30
2022-11-06T13:27:29.010Z,11.93
2022-11-06T13:30:02.781Z,11.40
2022-11-06T13:32:34.762Z,11.40
2022-11-06T13:35:04.567Z,12.00
2022-11-06T13:37:39.713Z,11.25
2022-11-06T13:40:21.908Z,12.18
2022-11-06T13:42:55.269Z,9.87
2022-11-06T13:45:25.623Z,11.60
2022-11-06T13:48:18.664Z,11.38
2022-11-06T13:50:54.672Z,11.73
2022-11-06T13:53:31.748Z,11.80
2022-11-06T13:56:07.976Z,10.00
2022-11-06T13:59:04.063Z,9.97
2022-11-06T14:01:49.931Z,9.98
2022-11-06T14:04:53.291Z,14.32
2022-11-06T14:07:23.732Z,12.98
2022-11-06T14:09:51.970Z,8.75
2022-11-06T14:12:23.480Z,9.33
2022-11-06T14:15:13.958Z,9.80
2022-11-06T14:17:43.520Z,9.17
2022-11-06T14:20:31.230Z,11.97
2022-11-06T14:23:32.406Z,10.30
2022-11-06T14:26:01.829Z,9.47
2022-11-06T14:28:34.645Z,9.77
2022-11-06T14:31:12.031Z,9.30
2022-11-06T14:34:27.419Z,11.83
2022-11-06T14:36:55.575Z,14.30
2022-11-06T14:40:08.471Z,13.17
2022-11-06T14:42:39.174Z,10.70
2022-11-06T14:45:14.155Z,11.80
2022-11-06T14:47:52.616Z,11.37
2022-11-06T14:50:34.249Z,12.50
2022-11-06T14:53:04.627Z,11.90
2022-11-06T14:55:39.596Z,10.90
2022-11-06T14:58:18.678Z,11.70
2022-11-06T15:00:53.090Z,12.60
2022-11-06T15:03:26.766Z,9.57
2022-11-06T15:06:02.000Z,11.15
2022-11-06T15:08:59.611Z,8.23
2022-11-06T15:11:50.700Z,9.07
2022-11-06T15:14:56.365Z,10.57
2022-11-06T15:17:26.598Z,7.68
2022-11-06T15:20:20.679Z,8.13
2022-11-06T15:23:02.157Z,11.95
2022-11-06T15:25:30.352Z,7.90
2022-11-06T15:28:04.332Z,14.02
2022-11-06T15:30:41.133Z,8.05
2022-11-06T15:33:17.047Z,8.52
2022-11-06T15:35:47.854Z,8.67
2022-11-06T15:38:21.085Z,7.83
2022-11-06T15:40:52.355Z,8.27
2022-11-06T15:43:29.250Z,8.50
2022-11-06T15:46:07.304Z,7.60
2022-11-06T15:48:36.144Z,8.48
2022-11-06T15:51:05.813Z,7.70
2022-11-06T15:53:40.677Z,8.20
2022-11-06T15:56:10.327Z,9.00
2022-11-06T15:58:39.233Z,9.70
2022-11-06T16:01:08.977Z,8.40
2022-11-06T16:03:46.468Z,10.13
2022-11-06T16:06:14.897Z,7.03
2022-11-06T16:08:45.288Z,9.10
2022-11-06T16:11:16.503Z,9.57
2022-11-06T16:13:46.595Z,8.57
2022-11-06T16:16:33.787Z,9.57
2022-11-06T16:19:03.687Z,13.57
2022-11-06T16:21:35.259Z,10.18
2022-11-06T16:24:11.956Z,10.68
2022-11-06T16:26:45.802Z,11.35
2022-11-06T16:29:20.127Z,17.33
2022-11-06T16:31:49.885Z,16.77
2022-11-06T16:34:33.774Z,17.83
2022-11-06T16:37:04.623Z,17.17
2022-11-06T16:39:50.864Z,18.27
2022-11-06T16:42:30.391Z,18.63
2022-11-06T16:45:04.064Z,17.92
2022-11-06T16:47:32.187Z,16.92
2022-11-06T16:50:02.016Z,17.42
2022-11-06T16:52:32.313Z,16.42
2022-11-06T16:55:04.721Z,15.35
2022-11-06T16:57:36.544Z,16.00
2022-11-06T17:00:08.716Z,15.68
2022-11-06T17:02:38.925Z,17.52
2022-11-06T17:05:16.755Z,15.05
2022-11-06T17:07:46.658Z,17.00
2022-11-06T17:10:38.834Z,15.85
2022-11-06T17:13:18.243Z,15.18
2022-11-06T17:15:48.468Z,17.90
2022-11-06T17:18:19.987Z,17.30
2022-11-06T17:20:52.342Z,22.50
2022-11-06T17:23:21.514Z,16.27
2022-11-06T17:25:54.034Z,17.00
2022-11-06T17:28:22.836Z,14.93
2022-11-06T17:30:51.379Z,17.20
2022-11-06T17:33:20.030Z,19.02
2022-11-06T17:35:49.137Z,17.30
2022-11-06T17:38:18.588Z,19.73
2022-11-06T17:40:47.691Z,17.97
2022-11-06T17:43:17.514Z,16.80
2022-11-06T17:45:48.083Z,17.67
2022-11-06T17:48:16.560Z,25.35
2022-11-06T17:51:02.445Z,17.00
2022-11-06T17:53:30.560Z,17.77
2022-11-06T17:55:58.699Z,21.02
2022-11-06T17:58:28.177Z,19.27
2022-11-06T18:00:56.891Z,18.08
2022-11-06T18:03:25.169Z,19.23
2022-11-06T18:05:53.361Z,22.40
2022-11-06T18:08:21.485Z,17.65
2022-11-06T18:10:55.042Z,19.30
2022-11-06T18:13:23.279Z,19.70
2022-11-06T18:15:53.500Z,21.87
2022-11-06T18:18:21.686Z,16.60
2022-11-06T18:20:50.148Z,39.73
2022-11-06T18:23:18.447Z,51.87
2022-11-06T18:25:55.692Z,22.20
2022-11-06T18:28:24.057Z,20.10
2022-11-06T18:30:53.836Z,20.67
2022-11-06T18:33:22.137Z,20.38
2022-11-06T18:35:50.296Z,23.43
2022-11-06T18:38:18.531Z,23.17
2022-11-06T18:40:51.416Z,26.17
2022-11-06T18:43:20.068Z,24.80
2022-11-06T18:45:48.315Z,21.80
2022-11-06T18:48:21.306Z,26.27
2022-11-06T18:50:50.280Z,23.30
2022-11-06T18:53:18.406Z,26.70
2022-11-06T18:55:47.161Z,27.80
2022-11-06T18:58:15.781Z,24.48
2022-11-06T19:00:44.230Z,24.53
2022-11-06T19:03:13.836Z,26.10
2022-11-06T19:05:48.525Z,25.60
2022-11-06T19:08:16.960Z,29.17
2022-11-06T19:10:45.520Z,24.92
2022-11-06T19:13:13.979Z,25.40
2022-11-06T19:15:42.931Z,24.73
2022-11-06T19:18:11.525Z,23.88
2022-11-06T19:20:40.899Z,29.13
2022-11-06T19:23:13.913Z,25.90
2022-11-06T19:25:42.604Z,25.00
2022-11-06T19:28:11.502Z,23.63
2022-11-06T19:30:39.861Z,24.48
2022-11-06T19:33:08.788Z,23.93
2022-11-06T19:35:36.986Z,25.38
2022-11-06T19:38:05.053Z,25.80
2022-11-06T19:40:34.781Z,25.73
2022-11-06T19:43:03.929Z,24.88
2022-11-06T19:45:32.020Z,29.15
2022-11-06T19:48:00.872Z,23.85
2022-11-06T19:50:58.225Z,30.33
2022-11-06T19:53:19.019Z,27.42
2022-11-06T19:55:49.409Z,30.00
2022-11-06T19:58:19.142Z,29.05
2022-11-06T20:00:48.522Z,26.08
2022-11-06T20:03:17.275Z,32.50
2022-11-06T20:05:45.730Z,29.80
2022-11-06T20:08:14.210Z,25.58
2022-11-06T20:10:42.563Z,32.67
2022-11-06T20:13:12.397Z,28.58
2022-11-06T20:15:40.824Z,33.10
2022-11-06T20:18:09.378Z,28.15
2022-11-06T20:20:37.512Z,32.45
2022-11-06T20:23:05.642Z,27.77
2022-11-06T20:25:33.749Z,31.48
2022-11-06T20:28:01.895Z,32.55
2022-11-06T20:30:31.887Z,36.50
2022-11-06T20:33:00.006Z,36.25
2022-11-06T20:35:28.164Z,34.95
2022-11-06T20:37:56.490Z,32.30
2022-11-06T20:40:24.626Z,31.38
2022-11-06T20:42:52.736Z,31.42
2022-11-06T20:45:20.832Z,29.20
2022-11-06T20:47:50.330Z,33.40
2022-11-06T20:50:18.539Z,32.75
2022-11-06T20:52:47.477Z,28.92
2022-11-06T20:55:15.577Z,33.50
2022-11-06T20:57:43.710Z,30.38
2022-11-06T21:00:13.641Z,31.90
2022-11-06T21:02:41.937Z,31.25
2022-11-06T21:05:11.733Z,30.02
2022-11-06T21:07:39.870Z,32.60
2022-11-06T21:10:09.985Z,31.13
2022-11-06T21:12:38.131Z,35.67
2022-11-06T21:15:07.503Z,35.25
2022-11-06T21:17:35.702Z,30.90
2022-11-06T21:20:03.907Z,28.02
2022-11-06T21:22:33.423Z,28.63
2022-11-06T21:25:01.545Z,27.55
2022-11-06T21:27:29.740Z,30.30
2022-11-06T21:29:58.301Z,28.00
2022-11-06T21:32:26.645Z,26.10
2022-11-06T21:34:54.748Z,27.17
2022-11-06T21:37:32.784Z,26.50
2022-11-06T21:40:02.521Z,31.55
2022-11-06T21:42:30.888Z,29.65
2022-11-06T21:44:59.050Z,28.45
2022-11-06T21:47:27.137Z,27.52
2022-11-06T21:49:55.295Z,30.63
2022-11-06T21:52:41.211Z,24.75
2022-11-06T21:55:24.839Z,25.83
2022-11-06T21:57:53.020Z,22.10
2022-11-06T22:00:21.856Z,24.35
2022-11-06T22:02:51.065Z,24.05
2022-11-06T22:05:19.375Z,26.10
2022-11-06T22:07:47.634Z,24.45
2022-11-06T22:10:17.215Z,26.02
2022-11-06T22:12:45.347Z,21.98
2022-11-06T22:15:13.475Z,26.02
2022-11-06T22:17:41.620Z,23.20
2022-11-06T22:20:10.751Z,24.25
2022-11-06T22:22:39.027Z,26.30
2022-11-06T22:25:07.879Z,26.67
2022-11-06T22:27:40.927Z,35.75
2022-11-06T22:30:10.664Z,29.35
2022-11-06T22:32:38.762Z,28.42
2022-11-06T22:35:07.234Z,25.70
2022-11-06T22:37:35.315Z,25.23
2022-11-06T22:40:04.151Z,28.48
2022-11-06T22:42:32.527Z,25.13
2022-11-06T22:45:02.032Z,23.50
2022-11-06T22:47:30.220Z,32.50
2022-11-06T22:49:58.322Z,24.55
2022-11-06T22:52:26.457Z,24.35
2022-11-06T22:54:54.574Z,28.70
2022-11-06T22:57:22.655Z,24.50
2022-11-06T22:59:50.765Z,25.52
2022-11-06T23:02:20.411Z,27.80
2022-11-06T23:04:48.619Z,29.50
2022-11-06T23:07:16.728Z,25.77
2022-11-06T23:09:44.863Z,30.55
2022-11-06T23:12:13.833Z,28.70
2022-11-06T23:14:42.149Z,25.50
2022-11-06T23:17:10.290Z,25.48
2022-11-06T23:19:39.799Z,26.10
2022-11-06T23:22:25.371Z,29.48
2022-11-06T23:24:53.735Z,26.00
2022-11-06T23:27:21.888Z,26.13
2022-11-06T23:29:50.005Z,26.52
2022-11-06T23:32:18.536Z,26.13
2022-11-06T23:34:48.030Z,25.48
2022-11-06T23:37:16.194Z,26.00
2022-11-06T23:39:44.261Z,26.05
2022-11-06T23:42:15.276Z,22.30
2022-11-06T23:45:01.248Z,28.33
2022-11-06T23:47:29.702Z,25.45
2022-11-06T23:49:59.347Z,27.42
2022-11-06T23:52:28.205Z,26.52
2022-11-06T23:54:56.384Z,26.25
2022-11-06T23:57:24.858Z,25.10
2022-11-06T23:59:52.971Z,25.20
